createdAt,value
2022-07-29T08:44:49.730Z,100391.84
2022-07-29T08:46:52.712Z,100391.84
2022-07-29T08:48:56.459Z,100391.94
2022-07-29T08:50:59.034Z,100389.75
2022-07-29T08:53:03.061Z,100388.72
2022-07-29T08:55:07.213Z,100382.09
2022-07-29T08:57:13.482Z,100381.12
2022-07-29T08:59:19.895Z,100378.84
2022-07-29T09:01:36.107Z,100381.97
2022-07-29T09:03:47.143Z,100377.19
2022-07-29T09:05:50.391Z,100373.44
2022-07-29T09:07:53.281Z,100373.44
2022-07-29T09:09:56.095Z,100369.47
2022-07-29T09:12:00.587Z,100370.72
2022-07-29T09:14:02.949Z,100372.19
2022-07-29T09:16:09.175Z,100373.00
2022-07-29T09:18:19.789Z,100367.75
2022-07-29T09:20:56.383Z,100364.47
2022-07-29T09:23:09.254Z,100363.00
2022-07-29T09:25:13.436Z,100360.22
2022-07-29T09:27:30.000Z,100360.00
2022-07-29T09:29:36.133Z,100358.47
2022-07-29T09:31:41.949Z,100369.03
2022-07-29T09:33:44.323Z,100359.56
2022-07-29T09:35:56.383Z,100359.69
2022-07-29T09:38:11.639Z,100351.50
2022-07-29T09:40:22.009Z,100360.22
2022-07-29T09:42:31.063Z,100349.28
2022-07-29T09:44:44.028Z,100347.44
2022-07-29T09:47:08.291Z,100340.31
2022-07-29T09:49:15.286Z,100341.28
2022-07-29T09:51:26.950Z,100335.78
2022-07-29T09:53:40.932Z,100334.59
2022-07-29T09:56:02.306Z,100340.22
2022-07-29T09:58:22.370Z,100335.66
2022-07-29T10:00:26.468Z,100330.12
2022-07-29T10:02:34.740Z,100333.72
2022-07-29T10:04:43.728Z,100322.94
2022-07-29T10:07:05.221Z,100323.91
2022-07-29T10:09:10.302Z,100323.03
2022-07-29T10:11:17.976Z,100320.25
2022-07-29T10:13:20.658Z,100329.81
2022-07-29T10:15:25.584Z,100318.53
2022-07-29T10:17:27.978Z,100322.37
2022-07-29T10:19:31.979Z,100322.19
2022-07-29T10:21:36.618Z,100314.44
2022-07-29T10:23:46.503Z,100311.44
2022-07-29T10:25:50.466Z,100306.94
2022-07-29T10:27:54.279Z,100305.37
2022-07-29T10:29:56.581Z,100300.53
2022-07-29T10:32:23.712Z,100296.41
2022-07-29T10:34:46.319Z,100295.75
2022-07-29T10:37:01.431Z,100300.59
2022-07-29T10:39:15.476Z,100297.75
2022-07-29T10:41:32.259Z,100288.56
2022-07-29T10:43:48.306Z,100288.34
2022-07-29T10:45:58.293Z,100288.91
2022-07-29T10:48:08.023Z,100281.03
2022-07-29T10:50:15.243Z,100283.38
2022-07-29T10:52:20.858Z,100289.06
2022-07-29T10:54:43.798Z,100286.69
2022-07-29T10:56:46.729Z,100287.63
2022-07-29T11:01:51.308Z,100275.72
2022-07-29T11:03:57.611Z,100272.94
2022-07-29T11:06:00.184Z,100274.59
2022-07-29T11:08:19.983Z,100276.97
2022-07-29T11:12:48.464Z,100267.19
2022-07-29T11:14:57.164Z,100273.44
2022-07-29T11:17:07.433Z,100275.31
2022-07-29T11:19:13.167Z,100278.28
2022-07-29T11:21:53.965Z,100269.59
2022-07-29T11:24:18.547Z,100266.97
2022-07-29T11:26:26.281Z,100262.06
2022-07-29T11:28:30.825Z,100256.12
2022-07-29T11:30:51.543Z,100256.56
2022-07-29T11:32:54.252Z,100246.69
2022-07-29T11:35:37.344Z,100237.72
2022-07-29T11:37:42.464Z,100240.94
2022-07-29T11:39:48.684Z,100240.69
2022-07-29T11:41:51.212Z,100237.28
2022-07-29T11:44:00.880Z,100236.94
2022-07-29T11:46:04.556Z,100232.78
2022-07-29T11:50:44.291Z,100231.62
2022-07-29T11:52:50.011Z,100242.53
2022-07-29T11:57:17.787Z,100235.78
2022-07-29T11:59:21.192Z,100232.66
2022-07-29T12:01:25.596Z,100236.84
2022-07-29T12:03:34.778Z,100230.91
2022-07-29T12:05:48.178Z,100228.03
2022-07-29T12:07:03.797Z,100229.63
2022-07-29T12:07:51.003Z,100233.37
2022-07-29T12:09:56.902Z,100229.09
2022-07-29T12:12:04.926Z,100228.66
2022-07-29T12:14:08.031Z,100226.59
2022-07-29T12:16:10.891Z,100219.75
2022-07-29T12:18:24.090Z,100213.69
2022-07-29T12:20:29.244Z,100206.34
2022-07-29T12:22:38.341Z,100195.31
2022-07-29T12:24:45.764Z,100196.37
2022-07-29T12:26:57.257Z,100192.91
2022-07-29T12:28:59.914Z,100190.88
2022-07-29T12:31:06.206Z,100180.66
2022-07-29T12:33:24.501Z,100188.12
2022-07-29T12:35:27.323Z,100179.03
2022-07-29T12:37:40.758Z,100172.37
2022-07-29T12:39:45.061Z,100169.59
2022-07-29T12:41:47.733Z,100167.84
2022-07-29T12:43:54.951Z,100172.75
2022-07-29T12:45:58.519Z,100159.81
2022-07-29T12:48:01.118Z,100164.84
2022-07-29T12:50:22.070Z,100155.66
2022-07-29T12:52:32.070Z,100151.16
2022-07-29T12:54:34.863Z,100156.81
2022-07-29T12:56:43.294Z,100160.50
2022-07-29T12:58:50.966Z,100151.56
2022-07-29T13:01:18.078Z,100155.78
2022-07-29T13:03:20.462Z,100154.38
2022-07-29T13:05:23.302Z,100154.41
2022-07-29T13:07:55.562Z,100149.91
2022-07-29T13:09:50.697Z,100147.50
2022-07-29T13:11:54.498Z,100148.25
2022-07-29T13:14:06.535Z,100149.13
2022-07-29T13:16:09.793Z,100147.81
2022-07-29T13:18:32.215Z,100137.88
2022-07-29T13:20:35.251Z,100137.38
2022-07-29T13:22:37.591Z,100124.78
2022-07-29T13:24:57.008Z,100122.34
2022-07-29T13:27:00.484Z,100123.56
2022-07-29T13:29:02.894Z,100120.38
2022-07-29T13:31:06.179Z,100119.47
2022-07-29T13:33:08.926Z,100118.34
2022-07-29T13:35:11.287Z,100122.91
2022-07-29T13:37:13.675Z,100118.87
2022-07-29T13:39:16.401Z,100120.41
2022-07-29T13:41:18.735Z,100126.00
2022-07-29T13:43:21.772Z,100120.53
2022-07-29T13:45:24.385Z,100115.94
2022-07-29T13:47:32.702Z,100114.38
2022-07-29T13:49:35.762Z,100113.31
2022-07-29T13:51:39.113Z,100116.56
2022-07-29T13:53:41.430Z,100114.13
2022-07-29T13:55:43.800Z,100107.53
2022-07-29T13:57:46.700Z,100102.88
2022-07-29T13:59:53.730Z,100103.47
2022-07-29T14:01:56.955Z,100102.22
2022-07-29T14:03:59.769Z,100094.69
2022-07-29T14:06:03.100Z,100097.13
2022-07-29T14:08:05.464Z,100093.94
2022-07-29T14:10:08.717Z,100088.03
2022-07-29T14:12:18.945Z,100089.88
2022-07-29T14:14:22.164Z,100087.50
2022-07-29T14:16:24.858Z,100090.63
2022-07-29T14:18:27.280Z,100086.44
2022-07-29T14:20:30.914Z,100081.28
2022-07-29T14:22:37.813Z,100076.59
2022-07-29T14:24:44.221Z,100082.28
2022-07-29T14:26:46.798Z,100084.63
2022-07-29T14:28:50.949Z,100078.19
2022-07-29T14:30:53.340Z,100081.50
2022-07-29T14:32:55.791Z,100080.59
2022-07-29T14:34:58.509Z,100081.41
2022-07-29T14:37:00.961Z,100071.75
2022-07-29T14:39:03.660Z,100066.09
2022-07-29T14:41:07.112Z,100066.94
2022-07-29T14:43:09.507Z,100070.75
2022-07-29T14:45:11.973Z,100060.03
2022-07-29T14:47:14.577Z,100069.66
2022-07-29T14:49:17.005Z,100067.16
2022-07-29T14:51:19.515Z,100067.72
2022-07-29T14:53:22.480Z,100068.91
2022-07-29T14:55:25.297Z,100060.34
2022-07-29T14:57:27.860Z,100056.50
2022-07-29T14:59:30.850Z,100057.37
2022-07-29T15:01:33.344Z,100052.88
2022-07-29T15:03:35.860Z,100043.16
2022-07-29T15:05:39.351Z,100040.84
2022-07-29T15:07:41.737Z,100034.31
2022-07-29T15:09:49.338Z,100033.81
2022-07-29T15:11:52.931Z,100038.00
2022-07-29T15:13:55.361Z,100031.38
2022-07-29T15:16:00.214Z,100041.97
2022-07-29T15:18:03.381Z,100037.94
2022-07-29T15:20:06.691Z,100036.03
2022-07-29T15:22:09.119Z,100033.59
2022-07-29T15:24:11.792Z,100034.41
2022-07-29T15:26:14.170Z,100027.34
2022-07-29T15:28:16.569Z,100028.50
2022-07-29T15:30:32.509Z,100028.38
2022-07-29T15:32:36.259Z,100026.53
2022-07-29T15:34:39.378Z,100022.22
2022-07-29T15:36:51.907Z,100016.56
2022-07-29T15:38:55.975Z,100016.81
2022-07-29T15:40:58.336Z,100022.41
2022-07-29T15:43:06.769Z,100015.12
2022-07-29T15:45:10.003Z,100017.75
2022-07-29T15:47:12.368Z,100021.59
2022-07-29T15:49:15.105Z,100012.44
2022-07-29T15:51:17.501Z,100020.22
2022-07-29T15:53:19.924Z,100014.03
2022-07-29T15:55:22.652Z,100015.06
2022-07-29T15:57:25.520Z,100013.72
2022-07-29T15:59:28.038Z,100014.63
2022-07-29T16:01:30.840Z,100001.38
2022-07-29T16:03:33.581Z,100007.09
2022-07-29T16:05:36.035Z,100004.19
2022-07-29T16:07:39.980Z,100002.81
2022-07-29T16:09:44.858Z,100002.56
2022-07-29T16:11:53.959Z,100001.12
2022-07-29T16:13:56.348Z,100001.88
2022-07-29T16:16:02.167Z,100010.09
2022-07-29T16:18:05.772Z,100006.97
2022-07-29T16:20:08.738Z,100009.38
2022-07-29T16:22:13.741Z,100004.25
2022-07-29T16:24:16.193Z,100007.38
2022-07-29T16:26:19.729Z,100011.41
2022-07-29T16:28:22.489Z,100007.22
2022-07-29T16:30:25.050Z,100008.22
2022-07-29T16:32:27.651Z,100008.97
2022-07-29T16:34:30.303Z,100011.09
2022-07-29T16:36:32.983Z,100008.03
2022-07-29T16:38:36.402Z,99997.25
2022-07-29T16:40:49.802Z,99998.22
2022-07-29T16:42:54.766Z,100000.88
2022-07-29T16:44:57.116Z,99994.09
2022-07-29T16:47:00.479Z,99997.38
2022-07-29T16:49:04.441Z,99994.09
2022-07-29T16:51:07.824Z,99999.91
2022-07-29T16:53:10.995Z,100004.13
2022-07-29T16:55:13.457Z,100000.00
2022-07-29T16:57:16.226Z,99996.50
2022-07-29T16:59:18.849Z,99990.88
2022-07-29T17:01:21.326Z,99998.47
2022-07-29T17:03:23.704Z,100000.25
2022-07-29T17:05:27.786Z,100001.41
2022-07-29T17:07:30.115Z,99996.94
2022-07-29T17:09:32.694Z,99999.94
2022-07-29T17:11:52.780Z,99995.03
2022-07-29T17:13:58.610Z,99997.25
2022-07-29T17:16:01.315Z,99998.22
2022-07-29T17:18:12.727Z,100001.81
2022-07-29T17:20:17.586Z,100000.72
2022-07-29T17:22:20.305Z,100004.38
2022-07-29T17:24:22.976Z,100003.22
2022-07-29T17:26:30.529Z,100004.47
2022-07-29T17:28:32.994Z,100006.97
2022-07-29T17:30:35.709Z,100003.37
2022-07-29T17:32:40.686Z,100004.19
2022-07-29T17:34:43.449Z,100000.22
2022-07-29T17:36:46.194Z,99999.00
2022-07-29T17:38:48.632Z,100001.03
2022-07-29T17:40:50.944Z,100003.16
2022-07-29T17:42:53.585Z,100003.31
2022-07-29T17:44:55.880Z,99998.03
2022-07-29T17:46:58.652Z,100006.03
2022-07-29T17:49:01.590Z,99999.31
2022-07-29T17:51:04.269Z,100002.97
2022-07-29T17:53:09.569Z,100000.94
2022-07-29T17:55:18.982Z,100006.16
2022-07-29T17:57:21.398Z,100001.66
2022-07-29T17:59:24.031Z,100002.97
2022-07-29T18:01:26.704Z,100006.22
2022-07-29T18:03:30.444Z,100002.84
2022-07-29T18:05:33.436Z,100004.25
2022-07-29T18:07:35.748Z,100010.84
2022-07-29T18:09:38.588Z,100011.62
2022-07-29T18:11:40.938Z,100011.75
2022-07-29T18:13:46.970Z,100016.13
2022-07-29T18:15:50.036Z,100022.91
2022-07-29T18:17:57.352Z,100012.59
2022-07-29T18:20:00.363Z,100020.41
2022-07-29T18:22:05.327Z,100024.19
2022-07-29T18:24:08.418Z,100022.84
2022-07-29T18:26:10.904Z,100021.47
2022-07-29T18:28:13.670Z,100023.66
2022-07-29T18:30:16.561Z,100025.59
2022-07-29T18:32:19.501Z,100027.94
2022-07-29T18:34:32.142Z,100028.91
2022-07-29T18:36:34.588Z,100036.25
2022-07-29T18:38:36.938Z,100029.56
2022-07-29T18:40:42.046Z,100030.78
2022-07-29T18:42:44.390Z,100033.97
2022-07-29T18:44:49.042Z,100032.22
2022-07-29T18:46:52.519Z,100039.72
2022-07-29T18:48:57.327Z,100042.00
2022-07-29T18:50:59.892Z,100042.50
2022-07-29T18:53:04.360Z,100043.56
2022-07-29T18:55:07.824Z,100047.56
2022-07-29T18:57:55.051Z,100052.50
2022-07-29T18:59:34.596Z,100058.75
2022-07-29T19:01:38.087Z,100069.47
2022-07-29T19:03:40.542Z,100072.28
2022-07-29T19:05:43.326Z,100080.25
2022-07-29T19:07:45.657Z,100086.19
2022-07-29T19:09:49.307Z,100081.06
2022-07-29T19:11:55.980Z,100089.47
2022-07-29T19:13:59.145Z,100086.97
2022-07-29T19:16:01.587Z,100091.66
2022-07-29T19:18:04.711Z,100095.81
2022-07-29T19:20:07.999Z,100099.06
2022-07-29T19:22:10.353Z,100095.94
2022-07-29T19:24:15.552Z,100096.03
2022-07-29T19:26:20.628Z,100098.03
2022-07-29T19:28:23.305Z,100103.75
2022-07-29T19:30:25.964Z,100099.09
2022-07-29T19:32:28.344Z,100100.09
2022-07-29T19:34:30.871Z,100100.84
2022-07-29T19:36:33.808Z,100093.41
2022-07-29T19:38:39.495Z,100098.31
2022-07-29T19:40:41.875Z,100094.53
2022-07-29T19:42:44.966Z,100100.59
2022-07-29T19:44:47.342Z,100095.59
2022-07-29T19:46:49.759Z,100089.25
2022-07-29T19:48:53.607Z,100095.16
2022-07-29T19:50:55.992Z,100084.34
2022-07-29T19:52:59.240Z,100091.84
2022-07-29T19:55:07.753Z,100092.28
2022-07-29T19:57:10.400Z,100093.63
2022-07-29T19:59:13.014Z,100087.94
2022-07-29T20:01:17.127Z,100086.91
2022-07-29T20:03:19.745Z,100095.34
2022-07-29T20:05:22.175Z,100093.38
2022-07-29T20:07:30.617Z,100094.87
2022-07-29T20:09:33.923Z,100089.25
2022-07-29T20:11:37.656Z,100086.75
2022-07-29T20:13:40.186Z,100093.81
2022-07-29T20:15:42.893Z,100089.44
2022-07-29T20:17:45.428Z,100098.00
2022-07-29T20:19:49.921Z,100097.56
2022-07-29T20:21:52.918Z,100097.44
2022-07-29T20:23:56.857Z,100101.81
2022-07-29T20:25:59.276Z,100104.91
2022-07-29T20:28:01.901Z,100107.00
2022-07-29T20:30:05.307Z,100110.06
2022-07-29T20:32:08.969Z,100110.56
2022-07-29T20:34:11.769Z,100115.53
2022-07-29T20:36:14.492Z,100116.00
2022-07-29T20:38:18.496Z,100109.53
2022-07-29T20:40:21.243Z,100112.47
2022-07-29T20:42:23.793Z,100112.28
2022-07-29T20:44:26.136Z,100114.16
2022-07-29T20:46:28.931Z,100109.81
2022-07-29T20:48:31.372Z,100109.78
2022-07-29T20:50:33.750Z,100116.03
2022-07-29T20:52:36.624Z,100116.84
2022-07-29T20:54:39.012Z,100117.06
2022-07-29T20:56:41.673Z,100122.44
2022-07-29T20:58:44.395Z,100125.94
2022-07-29T21:00:47.018Z,100122.44
2022-07-29T21:02:49.438Z,100129.50
2022-07-29T21:04:52.165Z,100134.22
2022-07-29T21:06:54.534Z,100131.97
2022-07-29T21:08:58.048Z,100136.53
2022-07-29T21:11:01.091Z,100131.13
2022-07-29T21:13:03.649Z,100136.53
2022-07-29T21:15:06.693Z,100134.59
2022-07-29T21:17:10.401Z,100143.88
2022-07-29T21:19:12.779Z,100139.34
2022-07-29T21:21:16.646Z,100139.31
2022-07-29T21:23:19.271Z,100143.56
2022-07-29T21:25:22.910Z,100139.69
2022-07-29T21:27:43.970Z,100144.84
2022-07-29T21:29:46.759Z,100143.41
2022-07-29T21:31:49.073Z,100143.25
2022-07-29T21:33:51.386Z,100144.22
2022-07-29T21:38:18.352Z,100150.19
2022-07-29T21:40:20.981Z,100155.25
2022-07-29T21:42:23.665Z,100152.25
2022-07-29T21:44:26.944Z,100152.44
2022-07-29T21:46:29.761Z,100151.59
2022-07-29T21:48:32.495Z,100160.97
2022-07-29T21:50:35.690Z,100161.81
2022-07-29T21:52:38.982Z,100166.31
2022-07-29T21:54:42.774Z,100175.59
2022-07-29T21:56:45.819Z,100172.22
2022-07-29T21:58:53.670Z,100174.91
2022-07-29T22:00:56.521Z,100181.19
2022-07-29T22:02:59.446Z,100183.09
2022-07-29T22:05:01.764Z,100182.91
2022-07-29T22:07:04.445Z,100190.75
